Rosa Maersk — OVST2 — position and weather

sailwx.info

Track history (hours):
 
Tides and Currents Weather Stations Pressure Air Temp Water Temp Dewpoint Dewpoint Depression Visibility Wind Speed Wind Dir Waves Ship Positions

Rosa Maersk

Last reported at 2015-Jan-28 23:34 UTC. Time now 2015-Jan-31 00:47 UTC.
Position N 37°51' E 023°23'.

Length 172 m; draft 10.8 m.

Type: Ship. MMSI: 220288000.

Date/timePositionNaut miles runAvg speedWind from/ knotsBaromVisibWave heightAir tempDewpointWater temp
2015-Jan-28 23:34N 37°51' E 023°23'1312.5
2015-Jan-28 22:33N 37°51' E 023°39'1211.8
2015-Jan-28 21:33N 37°40' E 023°46'2211.0
2015-Jan-28 19:30N 37°40' E 024°14'14212.9
2015-Jan-28 08:29N 39°45' E 025°42'6212.1
2015-Jan-28 03:21N 40°25' E 026°43'393 8.4
2015-Jan-26 04:28N 43°49' E 034°17'1213.2
2015-Jan-26 03:34N 43°55' E 034°31'1313.2
2015-Jan-26 02:32N 44°03' E 034°46'1313.3
2015-Jan-26 01:34N 44°10' E 035°02'1313.3
2015-Jan-26 00:34N 44°17' E 035°17'1413.3
2015-Jan-25 23:31N 44°25' E 035°33'1313.4
2015-Jan-25 22:31N 44°32' E 035°50'  
Track history (hours):
 
Tides and Currents Weather Stations Pressure Air Temp Water Temp Dewpoint Dewpoint Depression Visibility Wind Speed Wind Dir Waves Ship Positions

Rosa Maersk

Last reported at 2015-Jan-28 23:34 UTC. Time now 2015-Jan-31 00:47 UTC.
Position N 37°51' E 023°23'.

Length 172 m; draft 10.8 m.

Type: Ship. MMSI: 220288000.

Date/timePositionNaut miles runAvg speedWind from/ knotsBaromVisibWave heightAir tempDewpointWater temp
2015-Jan-28 23:34N 37°51' E 023°23'1312.5
2015-Jan-28 22:33N 37°51' E 023°39'1211.8
2015-Jan-28 21:33N 37°40' E 023°46'2211.0
2015-Jan-28 19:30N 37°40' E 024°14'14212.9
2015-Jan-28 08:29N 39°45' E 025°42'6212.1
2015-Jan-28 03:21N 40°25' E 026°43'393 8.4
2015-Jan-26 04:28N 43°49' E 034°17'1213.2
2015-Jan-26 03:34N 43°55' E 034°31'1313.2
2015-Jan-26 02:32N 44°03' E 034°46'1313.3
2015-Jan-26 01:34N 44°10' E 035°02'1313.3
2015-Jan-26 00:34N 44°17' E 035°17'1413.3
2015-Jan-25 23:31N 44°25' E 035°33'1313.4
2015-Jan-25 22:31N 44°32' E 035°50'  

Dump ship's entire track history